Time;durP1;ratioP1;P1;durP2;ratioP2;P2;SDS_P1;SDS_P2;PMS_P1;PMS_P2;Temp;Humidity;BMP_temperature;BMP_pressure;BME280_temperature;BME280_humidity;BME280_pressure;Samples;Min_cycle;Max_cycle;Signal;HPM_P1;HPM_P2
2022/06/22 00:02:22;;;;;;;8.60;7.80;;;;;;;25.18;50.16;94730.16;6158475;28;104337;-55
2022/06/22 00:05:32;;;;;;;8.83;8.13;;;;;;;25.13;50.19;94727.72;6152991;28;103932;-54
2022/06/22 00:08:37;;;;;;;8.97;8.13;;;;;;;25.11;49.87;94728.06;6147666;28;103760;-55
2022/06/22 00:11:44;;;;;;;7.23;6.77;;;;;;;25.08;49.96;94729.50;6156763;28;104570;-55
2022/06/22 00:14:51;;;;;;;8.10;7.40;;;;;;;25.11;49.91;94732.63;6160829;28;104806;-55
2022/06/22 00:17:55;;;;;;;8.70;7.40;;;;;;;25.07;50.03;94735.19;6138194;28;103666;-55
2022/06/22 00:21:00;;;;;;;8.30;7.70;;;;;;;25.03;50.23;94735.06;6160133;28;103998;-55
2022/06/22 00:24:26;;;;;;;8.23;7.63;;;;;;;25.13;49.56;94736.53;6158576;28;103834;-55
2022/06/22 00:27:35;;;;;;;8.93;8.23;;;;;;;25.14;49.57;94734.63;6157689;28;103588;-55
2022/06/22 00:30:47;;;;;;;8.50;7.80;;;;;;;25.08;49.79;94737.53;6141994;28;103801;-55
2022/06/22 00:34:06;;;;;;;8.77;7.97;;;;;;;25.12;49.57;94731.50;6158655;28;103451;-54
2022/06/22 00:37:16;;;;;;;8.97;7.87;;;;;;;25.12;49.61;94731.50;6156901;28;104870;-55
2022/06/22 00:40:19;;;;;;;9.20;8.40;;;;;;;25.11;49.92;94728.06;6149475;28;103837;-54
2022/06/22 00:43:27;;;;;;;10.67;8.20;;;;;;;25.11;49.83;94728.06;6146952;28;103655;-55
2022/06/22 00:46:31;;;;;;;8.67;7.80;;;;;;;25.11;49.77;94736.09;6160984;28;105350;-55
2022/06/22 00:49:37;;;;;;;8.10;7.27;;;;;;;25.09;49.76;94736.41;6159160;28;104694;-54
2022/06/22 00:52:43;;;;;;;8.33;7.50;;;;;;;24.99;50.12;94734.16;6139791;28;103990;-55
2022/06/22 00:55:53;;;;;;;9.20;8.50;;;;;;;25.01;49.84;94728.47;6160129;28;103905;-55
2022/06/22 00:59:00;;;;;;;8.60;7.90;;;;;;;25.07;49.56;94735.97;6158262;28;103684;-56
2022/06/22 01:02:14;;;;;;;8.57;7.87;;;;;;;25.06;49.44;94736.31;6160334;28;105099;-56
2022/06/22 01:05:24;;;;;;;8.53;7.93;;;;;;;25.06;49.73;94737.09;6139714;28;104997;-55
2022/06/22 01:08:33;;;;;;;8.83;7.83;;;;;;;25.09;49.50;94728.38;6152619;28;103947;-56
2022/06/22 01:15:08;;;;;;;8.57;7.80;;;;;;;25.12;49.48;94721.56;6148254;28;103546;-56
2022/06/22 01:18:16;;;;;;;8.40;7.70;;;;;;;25.13;49.44;94714.31;6158519;28;103679;-56
2022/06/22 01:21:26;;;;;;;9.00;8.30;;;;;;;25.07;49.48;94711.88;6152103;28;103698;-55
2022/06/22 01:24:40;;;;;;;8.83;8.07;;;;;;;25.09;49.19;94709.63;6158325;28;103863;-55
2022/06/22 01:27:46;;;;;;;9.33;8.43;;;;;;;25.13;49.33;94717.00;6147063;28;103737;-55
2022/06/22 01:30:53;;;;;;;9.73;8.50;;;;;;;25.12;49.27;94716.22;6159005;28;104826;-55
2022/06/22 01:33:57;;;;;;;7.97;7.40;;;;;;;25.15;49.26;94715.56;6156480;28;103664;-55
2022/06/22 01:37:02;;;;;;;9.20;8.30;;;;;;;25.08;49.79;94723.38;6149402;28;103897;-54
2022/06/22 01:40:12;;;;;;;9.90;9.20;;;;;;;25.04;49.91;94709.88;6158068;28;103775;-58
2022/06/22 01:43:27;;;;;;;8.77;8.10;;;;;;;25.03;49.91;94718.19;6159604;28;104908;-55
2022/06/22 01:46:42;;;;;;;9.87;8.97;;;;;;;24.98;49.85;94713.84;6151724;28;104940;-55
2022/06/22 01:49:53;;;;;;;9.07;8.37;;;;;;;24.99;49.96;94702.03;6140860;28;103825;-53
2022/06/22 01:53:04;;;;;;;8.97;8.13;;;;;;;25.00;50.05;94703.59;6158257;28;103791;-53
2022/06/22 01:56:14;;;;;;;8.83;8.17;;;;;;;25.04;49.79;94696.47;6134799;28;103920;-53
2022/06/22 01:59:27;;;;;;;8.90;8.30;;;;;;;24.97;49.67;94698.91;6131706;28;103869;-55
2022/06/22 02:02:37;;;;;;;8.77;8.10;;;;;;;24.96;49.96;94702.69;6147179;28;103977;-55
2022/06/22 02:05:45;;;;;;;9.30;8.50;;;;;;;24.89;50.19;94691.78;6138957;28;103682;-55
2022/06/22 02:08:48;;;;;;;9.40;8.37;;;;;;;24.89;49.95;94697.13;6153285;28;104843;-55
2022/06/22 02:12:18;;;;;;;8.70;7.93;;;;;;;25.01;49.69;94697.13;6134460;28;104877;-54
2022/06/22 02:15:27;;;;;;;9.50;8.50;;;;;;;24.98;49.83;94697.00;6146118;28;104833;-54
2022/06/22 02:18:41;;;;;;;11.60;10.47;;;;;;;24.94;49.97;94694.22;6161664;28;103543;-55
2022/06/22 02:21:47;;;;;;;10.83;10.10;;;;;;;25.00;49.55;94697.47;6160169;28;103896;-53
2022/06/22 02:24:51;;;;;;;10.50;9.27;;;;;;;25.03;49.50;94691.44;6153940;28;103673;-54
2022/06/22 02:27:55;;;;;;;9.80;9.10;;;;;;;25.00;49.33;94692.88;6142743;28;103464;-55
2022/06/22 02:31:02;;;;;;;10.13;9.23;;;;;;;25.02;49.66;94697.91;6163038;28;103907;-54
2022/06/22 02:34:06;;;;;;;10.13;9.23;;;;;;;24.95;49.90;94690.44;6152331;28;105560;-55
2022/06/22 02:37:10;;;;;;;9.77;9.00;;;;;;;24.95;49.88;94685.06;6160963;28;103470;-54
2022/06/22 02:40:18;;;;;;;10.17;8.60;;;;;;;25.02;49.61;94689.88;6162131;28;103694;-55
2022/06/22 02:46:48;;;;;;;11.60;10.67;;;;;;;25.19;49.03;94699.59;6148519;28;103935;-56
2022/06/22 02:49:56;;;;;;;12.27;11.27;;;;;;;25.21;48.74;94692.03;6161413;28;103804;-56
2022/06/22 02:53:02;;;;;;;12.23;11.03;;;;;;;25.16;48.95;94690.34;6161781;28;104674;-55
2022/06/22 02:56:08;;;;;;;11.80;10.60;;;;;;;25.12;49.20;94692.13;6157117;28;103762;-60
2022/06/22 02:59:12;;;;;;;10.10;9.30;;;;;;;25.05;49.76;94690.00;6151936;28;103890;-56
2022/06/22 03:02:17;;;;;;;10.13;9.40;;;;;;;25.05;49.19;94692.69;6156155;28;104412;-54
2022/06/22 03:05:21;;;;;;;10.00;9.27;;;;;;;25.06;49.61;94696.94;6161179;28;103585;-56
2022/06/22 03:08:25;;;;;;;11.17;10.10;;;;;;;25.12;49.08;94702.06;6152403;28;104201;-55
2022/06/22 03:11:29;;;;;;;10.50;9.50;;;;;;;25.11;49.17;94711.97;6160764;28;103476;-56
2022/06/22 03:14:36;;;;;;;10.10;9.17;;;;;;;25.17;49.10;94709.84;6161602;28;104548;-56
2022/06/22 03:17:41;;;;;;;11.60;10.40;;;;;;;25.17;49.26;94715.22;6159249;28;103645;-57
2022/06/22 03:20:50;;;;;;;11.00;10.03;;;;;;;25.05;49.11;94706.06;6150239;28;103943;-56
2022/06/22 03:24:02;;;;;;;11.90;9.63;;;;;;;25.00;49.77;94703.59;6156018;28;103763;-56
2022/06/22 03:27:15;;;;;;;11.00;9.67;;;;;;;25.00;49.60;94703.59;6154852;28;106219;-56
2022/06/22 03:30:21;;;;;;;10.27;9.53;;;;;;;25.02;49.54;94701.34;6156479;28;103899;-57
2022/06/22 03:33:30;;;;;;;11.07;10.03;;;;;;;24.94;49.72;94704.94;6157917;28;104394;-57
2022/06/22 03:36:38;;;;;;;10.43;9.43;;;;;;;25.00;49.97;94690.19;6154991;28;103968;-56
2022/06/22 03:39:45;;;;;;;12.33;10.90;;;;;;;25.07;49.65;94693.13;6150360;28;103819;-56
2022/06/22 03:42:54;;;;;;;11.60;10.67;;;;;;;25.13;49.00;94685.66;6127468;28;105676;-56
2022/06/22 03:46:02;;;;;;;10.43;9.47;;;;;;;25.22;50.37;94704.31;6152460;28;104829;-56
2022/06/22 03:49:13;;;;;;;10.83;9.90;;;;;;;25.27;50.03;94704.06;6144549;28;104134;-56
2022/06/22 03:52:22;;;;;;;11.40;10.40;;;;;;;25.30;51.10;94711.44;6161570;28;103957;-57
2022/06/22 03:55:33;;;;;;;11.63;10.53;;;;;;;25.31;51.37;94708.41;6151755;28;105315;-56
2022/06/22 03:58:37;;;;;;;11.27;10.37;;;;;;;25.28;50.48;94702.97;6161456;28;104038;-57
2022/06/22 04:01:41;;;;;;;11.00;10.10;;;;;;;25.30;51.08;94719.47;6148063;28;103669;-56
2022/06/22 04:04:49;;;;;;;12.00;10.87;;;;;;;25.31;50.26;94729.84;6150136;28;105172;-56
2022/06/22 04:07:54;;;;;;;13.40;11.37;;;;;;;25.22;50.90;94718.47;6152379;28;103851;-54
2022/06/22 04:11:02;;;;;;;13.00;10.33;;;;;;;25.30;51.20;94727.50;6147683;28;105445;-54
2022/06/22 04:14:13;;;;;;;12.40;11.20;;;;;;;25.32;51.84;94736.00;6146337;28;103868;-54
2022/06/22 04:17:24;;;;;;;13.70;12.33;;;;;;;25.35;54.34;94732.66;6144236;28;104545;-54
2022/06/22 04:20:51;;;;;;;13.70;12.33;;;;;;;25.15;51.82;94726.25;6158042;28;105021;-55
2022/06/22 04:23:58;;;;;;;12.27;11.10;;;;;;;25.21;51.34;94718.81;6160537;28;103639;-55
2022/06/22 04:27:08;;;;;;;13.57;12.23;;;;;;;25.21;51.80;94708.09;6154931;28;103905;-55
2022/06/22 04:30:17;;;;;;;11.90;10.90;;;;;;;25.25;51.02;94703.63;6158796;28;103984;-55
2022/06/22 04:33:27;;;;;;;11.00;10.17;;;;;;;25.32;51.81;94709.19;6160678;28;103860;-54
2022/06/22 04:36:38;;;;;;;11.80;10.70;;;;;;;25.33;53.52;94713.44;6161277;28;103486;-55
2022/06/22 04:39:47;;;;;;;12.53;11.20;;;;;;;25.34;53.45;94715.78;6146266;28;104238;-55
2022/06/22 04:42:56;;;;;;;11.57;10.47;;;;;;;25.36;53.43;94726.19;6158697;28;103700;-55
2022/06/22 04:45:59;;;;;;;11.83;10.90;;;;;;;25.35;53.68;94728.09;6158667;28;103495;-55
2022/06/22 04:49:08;;;;;;;11.83;10.80;;;;;;;25.36;53.91;94734.22;6158380;28;103895;-55
2022/06/22 04:52:18;;;;;;;12.43;11.33;;;;;;;25.36;53.59;94728.88;6151013;28;105039;-56
2022/06/22 04:55:26;;;;;;;12.23;11.20;;;;;;;25.36;53.67;94736.91;6160614;28;103935;-56
2022/06/22 04:58:36;;;;;;;11.73;10.60;;;;;;;25.36;52.65;94742.25;6161416;28;104876;-56
2022/06/22 05:01:44;;;;;;;12.40;11.30;;;;;;;25.35;53.67;94736.13;6150658;28;104247;-55
2022/06/22 05:04:52;;;;;;;11.97;10.97;;;;;;;25.37;53.77;94733.13;6160861;28;103955;-56
2022/06/22 05:08:02;;;;;;;11.67;10.80;;;;;;;25.37;53.93;94746.50;6161058;28;103638;-56
2022/06/22 05:11:13;;;;;;;11.80;10.80;;;;;;;25.35;53.76;94749.53;6159719;28;103417;-56
2022/06/22 05:14:21;;;;;;;12.40;11.13;;;;;;;25.36;52.37;94750.31;6149567;28;104502;-55
2022/06/22 05:17:28;;;;;;;11.93;10.80;;;;;;;25.37;53.41;94758.03;6160622;28;103381;-55
2022/06/22 05:20:38;;;;;;;12.30;11.20;;;;;;;25.34;53.42;94763.22;6160627;28;103751;-56
2022/06/22 05:23:46;;;;;;;12.33;10.60;;;;;;;25.36;53.74;94751.09;6154779;28;103500;-60
2022/06/22 05:26:50;;;;;;;13.20;11.90;;;;;;;25.37;53.42;94750.00;6156250;28;103567;-55
2022/06/22 05:29:59;;;;;;;11.87;10.70;;;;;;;25.37;53.46;94747.31;6161046;28;104566;-55
2022/06/22 05:33:07;;;;;;;12.27;11.17;;;;;;;25.39;53.28;94744.31;6160013;28;103691;-55
2022/06/22 05:36:13;;;;;;;12.20;11.20;;;;;;;25.41;52.96;94746.66;6150447;28;103878;-55
2022/06/22 05:39:18;;;;;;;12.73;11.53;;;;;;;25.43;52.91;94741.72;6160159;28;104008;-55
2022/06/22 05:42:21;;;;;;;13.30;11.60;;;;;;;25.47;53.81;94732.69;6159957;28;103808;-55
2022/06/22 05:45:28;;;;;;;13.50;12.20;;;;;;;25.50;54.82;94728.56;6160458;28;105634;-54
2022/06/22 05:48:41;;;;;;;14.20;12.90;;;;;;;25.52;54.47;94734.34;6150658;28;104318;-54
2022/06/22 05:51:51;;;;;;;13.33;12.13;;;;;;;25.54;54.49;94737.47;6160028;28;103830;-54
2022/06/22 05:55:01;;;;;;;14.03;12.67;;;;;;;25.56;54.33;94749.44;6159767;28;103826;-54
2022/06/22 05:58:11;;;;;;;13.20;12.00;;;;;;;25.61;53.76;94757.25;6151539;28;103860;-56
2022/06/22 06:01:27;;;;;;;13.13;11.83;;;;;;;25.62;53.66;94748.09;6159664;28;104792;-56
2022/06/22 06:04:36;;;;;;;13.00;11.90;;;;;;;25.65;53.65;94750.09;6159820;28;103674;-55
2022/06/22 06:07:42;;;;;;;11.90;10.90;;;;;;;25.68;52.85;94741.38;6159739;28;103936;-54
2022/06/22 06:10:47;;;;;;;12.60;11.53;;;;;;;25.68;53.39;94741.38;6149593;28;104008;-54
2022/06/22 06:13:58;;;;;;;14.00;11.93;;;;;;;25.71;53.17;94736.47;6159535;28;104728;-55
2022/06/22 06:17:06;;;;;;;12.87;11.83;;;;;;;25.69;52.86;94731.44;6159556;28;104013;-55
2022/06/22 06:20:29;;;;;;;12.63;11.67;;;;;;;25.71;52.84;94745.31;6155005;28;103800;-55
2022/06/22 06:23:37;;;;;;;13.50;12.30;;;;;;;25.68;53.19;94752.09;6153689;28;103543;-56
2022/06/22 06:30:15;;;;;;;13.20;12.13;;;;;;;25.68;53.20;94748.63;6159372;28;103895;-56
2022/06/22 06:33:25;;;;;;;13.03;11.97;;;;;;;25.74;52.81;94751.91;6149342;28;103761;-56
2022/06/22 06:36:32;;;;;;;13.00;11.90;;;;;;;25.76;52.62;94741.63;6159706;28;103702;-70
2022/06/22 06:39:40;;;;;;;13.17;12.17;;;;;;;25.79;52.76;94738.25;6159453;28;104026;-55
2022/06/22 06:42:51;;;;;;;13.20;12.03;;;;;;;25.79;52.76;94743.63;6159232;28;103399;-54
2022/06/22 06:45:54;;;;;;;13.40;12.40;;;;;;;25.82;52.84;94737.59;6153279;28;104270;-55
2022/06/22 06:49:12;;;;;;;13.00;12.00;;;;;;;25.85;52.27;94734.22;6159407;28;105053;-55
2022/06/22 06:52:26;;;;;;;13.23;12.23;;;;;;;25.88;52.39;94725.53;6159580;28;104946;-55
2022/06/22 06:55:36;;;;;;;13.67;12.57;;;;;;;25.92;52.06;94729.88;6149167;28;104106;-55
2022/06/22 06:58:48;;;;;;;13.83;12.83;;;;;;;25.95;52.35;94721.16;6159228;28;103801;-55
2022/06/22 07:01:52;;;;;;;13.10;12.10;;;;;;;25.98;52.25;94727.72;6161201;28;103679;-56
2022/06/22 07:04:57;;;;;;;13.97;12.67;;;;;;;26.01;52.47;94721.72;6163210;28;103799;-57
2022/06/22 07:08:06;;;;;;;14.70;13.20;;;;;;;26.06;52.08;94724.19;6152422;28;103744;-55
2022/06/22 07:11:32;;;;;;;14.67;13.43;;;;;;;26.08;52.42;94719.25;6144469;28;105447;-56
2022/06/22 07:14:39;;;;;;;14.70;13.60;;;;;;;26.08;52.34;94708.53;6138638;28;103773;-56
2022/06/22 07:17:45;;;;;;;15.07;13.60;;;;;;;26.09;52.00;94707.41;6128674;28;104976;-56
2022/06/22 07:20:52;;;;;;;14.90;13.50;;;;;;;26.12;52.39;94720.13;6138663;28;103807;-56
2022/06/22 07:24:01;;;;;;;14.73;13.50;;;;;;;26.14;52.47;94712.53;6138219;28;103992;-56
2022/06/22 07:27:16;;;;;;;15.63;14.33;;;;;;;26.17;51.95;94711.06;6138727;28;103662;-56
2022/06/22 07:30:28;;;;;;;16.00;14.60;;;;;;;26.20;52.25;94715.75;6128649;28;104734;-55
2022/06/22 07:33:35;;;;;;;16.73;14.97;;;;;;;26.21;51.51;94712.75;6138374;28;103624;-56
2022/06/22 07:36:43;;;;;;;16.90;15.60;;;;;;;26.18;51.94;94712.63;6138055;28;103747;-56
2022/06/22 07:39:52;;;;;;;16.80;15.53;;;;;;;26.17;51.82;94711.84;6133595;28;104337;-55
2022/06/22 07:42:58;;;;;;;17.77;16.37;;;;;;;26.19;52.20;94709.59;6133777;28;104215;-56
2022/06/22 07:46:05;;;;;;;19.13;17.53;;;;;;;26.21;51.89;94706.56;6138027;28;103403;-56
2022/06/22 07:49:14;;;;;;;18.83;17.33;;;;;;;26.23;51.87;94704.34;6137361;28;103699;-56
2022/06/22 07:52:22;;;;;;;18.03;16.60;;;;;;;26.24;51.65;94714.75;6127414;28;106750;-56
2022/06/22 07:55:39;;;;;;;19.50;17.80;;;;;;;26.27;51.61;94722.09;6138021;28;103743;-56
2022/06/22 07:58:46;;;;;;;19.30;17.70;;;;;;;26.27;51.96;94715.97;6137730;28;103662;-56
2022/06/22 08:01:54;;;;;;;19.70;18.10;;;;;;;26.31;51.88;94721.41;6138121;28;103559;-56
2022/06/22 08:05:02;;;;;;;19.30;17.70;;;;;;;26.34;51.70;94720.72;6128821;28;103645;-56
2022/06/22 08:08:21;;;;;;;21.17;19.47;;;;;;;26.35;51.98;94730.34;6138116;28;104875;-56
2022/06/22 08:11:28;;;;;;;20.60;18.90;;;;;;;26.31;51.64;94727.56;6155820;28;104636;-55
2022/06/22 08:14:37;;;;;;;20.87;19.07;;;;;;;26.27;52.21;94732.84;6150893;28;104368;-56
2022/06/22 08:17:45;;;;;;;21.77;20.03;;;;;;;26.24;51.86;94722.78;6161402;28;105330;-56
2022/06/22 08:20:52;;;;;;;23.10;21.30;;;;;;;26.26;51.61;94717.09;6160637;28;103969;-55
2022/06/22 08:23:57;;;;;;;23.57;21.53;;;;;;;26.29;51.17;94719.06;6161425;28;103679;-56
2022/06/22 08:27:01;;;;;;;23.70;21.57;;;;;;;26.27;51.76;94711.38;6151435;28;103674;-55
2022/06/22 08:30:06;;;;;;;22.60;20.63;;;;;;;26.28;51.00;94710.25;6161847;28;104527;-64
2022/06/22 08:33:14;;;;;;;22.00;20.20;;;;;;;26.28;51.17;94709.47;6160928;28;103289;-56
2022/06/22 08:36:23;;;;;;;21.93;20.00;;;;;;;26.28;51.53;94709.47;6159514;28;103621;-54
2022/06/22 08:39:33;;;;;;;20.90;19.20;;;;;;;26.30;51.17;94707.22;6155726;28;103858;-55
2022/06/22 08:42:54;;;;;;;21.30;19.50;;;;;;;26.30;50.70;94703.75;6161672;28;103813;-56
2022/06/22 08:46:12;;;;;;;18.80;17.10;;;;;;;26.31;50.57;94703.41;6161314;28;103792;-56
2022/06/22 08:49:33;;;;;;;19.30;17.63;;;;;;;26.33;50.36;94709.22;6150505;28;103661;-54
2022/06/22 08:52:55;;;;;;;17.47;15.87;;;;;;;26.27;49.96;94707.91;6160539;28;104821;-55
2022/06/22 08:56:21;;;;;;;17.00;15.50;;;;;;;26.27;49.89;94705.22;6161534;28;104987;-56
2022/06/22 08:59:48;;;;;;;15.87;14.47;;;;;;;26.34;49.60;94704.63;6155757;28;104665;-56
2022/06/22 09:03:32;;;;;;;16.73;15.23;;;;;;;26.39;49.53;94701.72;6160448;28;103942;-55
2022/06/22 09:07:01;;;;;;;15.80;14.40;;;;;;;26.41;48.93;94696.81;6160544;28;104016;-55
2022/06/22 09:10:37;;;;;;;15.93;14.67;;;;;;;26.41;48.87;94689.53;6153697;28;104656;-55
2022/06/22 09:14:07;;;;;;;16.00;14.60;;;;;;;26.41;48.85;94684.16;6131285;28;105839;-55
2022/06/22 09:17:34;;;;;;;15.53;14.23;;;;;;;26.43;49.46;94684.59;6136920;28;104743;-55
2022/06/22 09:21:12;;;;;;;16.30;14.90;;;;;;;26.42;49.11;94682.25;6135840;28;103728;-55
2022/06/22 09:24:21;;;;;;;14.33;13.13;;;;;;;26.43;49.06;94686.50;6125151;28;106145;-55
2022/06/22 09:27:32;;;;;;;16.10;14.60;;;;;;;26.42;48.58;94687.63;6135039;28;104116;-57
2022/06/22 09:30:55;;;;;;;15.47;14.07;;;;;;;26.41;48.86;94678.78;6136688;28;104913;-55
2022/06/22 09:34:15;;;;;;;15.57;14.20;;;;;;;26.41;49.04;94672.66;6126448;28;104735;-56
2022/06/22 09:37:38;;;;;;;14.87;13.63;;;;;;;26.41;48.82;94664.59;6135460;28;103720;-54
2022/06/22 09:40:56;;;;;;;14.47;13.07;;;;;;;26.41;49.11;94657.31;6136198;28;104028;-55
2022/06/22 09:44:28;;;;;;;14.07;12.80;;;;;;;26.42;49.53;94652.75;6136014;28;105089;-56
2022/06/22 09:47:55;;;;;;;14.57;13.37;;;;;;;26.42;49.22;94653.53;6129668;28;103842;-55
2022/06/22 09:51:16;;;;;;;13.70;12.50;;;;;;;26.39;49.58;94648.06;6136251;28;103418;-57
2022/06/22 09:58:48;;;;;;;13.80;12.77;;;;;;;26.34;49.69;94659.03;6127682;28;104889;-55
2022/06/22 10:02:06;;;;;;;14.50;13.00;;;;;;;26.34;49.27;94661.72;6135008;28;103665;-56
2022/06/22 10:05:53;;;;;;;12.80;11.70;;;;;;;26.33;48.97;94674.34;6134940;28;103670;-56
2022/06/22 10:09:19;;;;;;;13.33;12.23;;;;;;;26.35;48.93;94663.25;6125661;28;103764;-55
2022/06/22 10:12:40;;;;;;;13.73;12.63;;;;;;;26.35;49.09;94682.81;6135267;28;103832;-55
2022/06/22 10:16:13;;;;;;;13.63;12.50;;;;;;;26.36;48.89;94686.28;6135512;28;103722;-56
2022/06/22 10:19:42;;;;;;;14.00;12.90;;;;;;;26.34;49.10;94678.59;6123880;28;103673;-54
2022/06/22 10:22:58;;;;;;;13.87;12.67;;;;;;;26.32;48.78;94682.72;6135519;28;104744;-56
2022/06/22 10:26:29;;;;;;;14.63;13.40;;;;;;;26.32;48.76;94690.78;6136197;28;104841;-55
2022/06/22 10:30:10;;;;;;;14.47;13.17;;;;;;;26.33;48.61;94686.97;6135270;28;103767;-56
2022/06/22 10:33:46;;;;;;;14.10;12.60;;;;;;;26.31;49.29;94695.38;6131657;28;105275;-56
2022/06/22 10:37:27;;;;;;;14.10;12.90;;;;;;;26.32;49.35;94686.19;6134477;28;104007;-57
2022/06/22 10:45:12;;;;;;;13.37;12.40;;;;;;;26.31;48.87;94690.00;6134359;28;104583;-55
2022/06/22 10:49:00;;;;;;;14.00;12.70;;;;;;;26.27;49.37;94679.19;6139482;28;103733;-55
2022/06/22 10:52:40;;;;;;;13.50;11.40;;;;;;;26.29;49.58;94678.84;6042204;28;104744;-55
2022/06/22 10:55:52;;;;;;;13.53;12.23;;;;;;;26.29;49.16;94681.53;6121843;28;103789;-55
2022/06/22 10:59:19;;;;;;;13.37;12.30;;;;;;;26.28;48.97;94671.91;6139050;28;104626;-56
2022/06/22 11:03:21;;;;;;;14.13;12.93;;;;;;;26.27;49.49;94673.03;6139403;28;106481;-54
2022/06/22 11:07:09;;;;;;;13.03;12.03;;;;;;;26.27;49.49;94659.63;6128645;28;103720;-55
2022/06/22 11:10:33;;;;;;;12.50;11.50;;;;;;;26.26;49.74;94668.78;6111196;28;104312;-56
2022/06/22 11:14:02;;;;;;;13.13;11.93;;;;;;;26.24;49.32;94663.78;6162109;28;103436;-55
2022/06/22 11:17:19;;;;;;;14.07;12.77;;;;;;;26.26;49.75;94666.88;6152647;28;103774;-58
2022/06/22 11:20:43;;;;;;;13.37;12.17;;;;;;;26.25;49.33;94659.97;6163159;28;103887;-55
2022/06/22 11:24:06;;;;;;;13.50;12.40;;;;;;;26.26;49.32;94672.25;6162232;28;105780;-56
2022/06/22 11:30:53;;;;;;;13.53;12.47;;;;;;;26.24;49.85;94679.88;6163206;28;103675;-57
2022/06/22 11:34:20;;;;;;;13.60;12.40;;;;;;;26.23;50.05;94683.69;6162921;28;104146;-55
2022/06/22 11:37:35;;;;;;;13.63;12.63;;;;;;;26.22;50.06;94662.56;6163576;28;104783;-55
2022/06/22 11:41:03;;;;;;;13.80;12.40;;;;;;;26.23;50.17;94677.53;6156253;28;103852;-56
2022/06/22 11:44:43;;;;;;;13.50;12.50;;;;;;;26.22;50.85;94667.94;6162536;28;103984;-55
2022/06/22 11:48:09;;;;;;;13.07;11.97;;;;;;;26.24;50.24;94673.72;6160216;28;103838;-55
2022/06/22 11:51:33;;;;;;;13.80;12.70;;;;;;;26.24;49.86;94673.72;6152128;28;103678;-56
2022/06/22 11:54:52;;;;;;;12.97;11.87;;;;;;;26.21;50.21;94669.81;6162111;28;104220;-55
2022/06/22 11:58:27;;;;;;;14.10;12.77;;;;;;;26.22;50.52;94671.38;6162313;28;104815;-55
2022/06/22 12:02:00;;;;;;;14.43;13.23;;;;;;;26.21;50.48;94675.19;6124477;28;103758;-55
2022/06/22 12:05:44;;;;;;;14.20;12.90;;;;;;;26.22;50.66;94665.25;6160666;28;103801;-55
2022/06/22 12:09:04;;;;;;;13.60;12.20;;;;;;;26.21;50.66;94669.81;6157251;28;103915;-55
2022/06/22 12:12:40;;;;;;;14.17;13.07;;;;;;;26.22;49.98;94679.44;6156290;28;104027;-55
2022/06/22 12:15:56;;;;;;;13.27;12.07;;;;;;;26.21;50.25;94682.44;6154229;28;103679;-56
2022/06/22 12:19:20;;;;;;;13.83;12.73;;;;;;;26.20;50.16;94681.66;6161298;28;103803;-57
2022/06/22 12:22:34;;;;;;;14.00;12.73;;;;;;;26.19;50.66;94676.63;6161301;28;103659;-66
2022/06/22 12:26:05;;;;;;;13.40;12.20;;;;;;;26.20;49.97;94672.81;6151824;28;103652;-54
2022/06/22 12:29:32;;;;;;;14.53;13.23;;;;;;;26.20;49.97;94680.88;6161640;28;104208;-55
2022/06/22 12:32:40;;;;;;;14.07;12.87;;;;;;;26.19;49.96;94676.63;6160908;28;103837;-55
2022/06/22 12:35:52;;;;;;;14.47;13.23;;;;;;;26.19;50.28;94677.41;6151181;28;103694;-54
2022/06/22 12:39:04;;;;;;;14.20;13.00;;;;;;;26.19;49.80;94682.00;6161591;28;103769;-55
2022/06/22 12:42:31;;;;;;;14.47;13.37;;;;;;;26.18;50.22;94691.94;6161151;28;103666;-55
2022/06/22 12:45:50;;;;;;;14.20;13.00;;;;;;;26.19;50.07;94690.03;6160528;28;103771;-54
2022/06/22 12:49:15;;;;;;;13.90;12.60;;;;;;;26.18;49.79;94675.84;6155607;28;103726;-54
2022/06/22 12:52:26;;;;;;;13.57;12.43;;;;;;;26.19;50.21;94684.69;6161659;28;103786;-54
2022/06/22 12:55:36;;;;;;;14.30;13.10;;;;;;;26.19;49.99;94672.03;6160020;28;103741;-55
2022/06/22 12:58:47;;;;;;;13.67;12.53;;;;;;;26.18;50.14;94673.16;6149833;28;103756;-54
2022/06/22 13:01:50;;;;;;;14.00;12.80;;;;;;;26.19;49.75;94682.78;6161096;28;104892;-54
2022/06/22 13:05:00;;;;;;;13.73;12.63;;;;;;;26.19;50.46;94676.63;6161043;28;103893;-55
2022/06/22 13:08:08;;;;;;;14.93;13.67;;;;;;;26.21;50.29;94679.75;6161365;28;103627;-55
2022/06/22 13:11:17;;;;;;;14.37;13.20;;;;;;;26.20;50.20;94656.72;6149283;28;103667;-55
2022/06/22 13:14:32;;;;;;;14.03;12.70;;;;;;;26.19;50.36;94639.84;6160825;28;103564;-54
2022/06/22 13:17:44;;;;;;;14.10;12.90;;;;;;;26.19;50.24;94647.91;6160519;28;103911;-54
2022/06/22 13:20:56;;;;;;;13.93;12.80;;;;;;;26.19;50.40;94655.94;6150675;28;103898;-53
2022/06/22 13:24:08;;;;;;;14.40;13.40;;;;;;;26.19;50.40;94660.53;6159926;28;103732;-54
2022/06/22 13:27:41;;;;;;;14.20;12.80;;;;;;;26.23;49.75;94672.16;6159806;28;103815;-51
2022/06/22 13:30:48;;;;;;;14.43;12.43;;;;;;;26.23;49.74;94670.25;6161241;28;105175;-51
2022/06/22 13:33:56;;;;;;;14.63;13.30;;;;;;;26.23;49.21;94659.53;6150099;28;104989;-52
2022/06/22 13:37:09;;;;;;;14.13;12.87;;;;;;;26.24;49.07;94679.88;6160789;28;103556;-52
2022/06/22 13:40:27;;;;;;;13.63;12.33;;;;;;;26.23;49.28;94667.56;6159867;28;103818;-52
2022/06/22 13:43:45;;;;;;;13.70;12.60;;;;;;;26.24;49.51;94657.63;6150002;28;103774;-50
2022/06/22 13:47:06;;;;;;;14.00;12.80;;;;;;;26.24;48.95;94655.72;6160187;28;103575;-51
2022/06/22 13:50:31;;;;;;;13.83;12.63;;;;;;;26.24;49.62;94655.72;6160452;28;103635;-52
2022/06/22 13:53:54;;;;;;;13.97;12.70;;;;;;;26.24;49.42;94663.00;6159747;28;103906;-51
2022/06/22 13:57:07;;;;;;;14.97;13.50;;;;;;;26.24;49.37;94658.41;6155166;28;103830;-52
2022/06/22 14:00:14;;;;;;;14.67;13.37;;;;;;;26.26;49.84;94656.16;6159434;28;103402;-53
2022/06/22 14:03:28;;;;;;;15.03;13.63;;;;;;;26.25;49.66;94665.34;6159738;28;103730;-52
2022/06/22 14:06:37;;;;;;;14.97;13.50;;;;;;;26.25;50.13;94661.88;6149125;28;103997;-52
2022/06/22 14:09:49;;;;;;;15.20;13.80;;;;;;;26.25;49.74;94661.88;6155825;28;103746;-52
2022/06/22 14:13:06;;;;;;;14.87;13.57;;;;;;;26.24;50.03;94671.03;6140006;28;103803;-52
2022/06/22 14:16:14;;;;;;;15.93;13.53;;;;;;;26.24;49.57;94666.47;6139499;28;103674;-52
2022/06/22 14:19:22;;;;;;;14.50;13.10;;;;;;;26.25;49.32;94669.91;6128914;28;103312;-52
2022/06/22 14:22:29;;;;;;;15.23;13.93;;;;;;;26.24;49.50;94663.78;6139425;28;103669;-52
2022/06/22 14:25:45;;;;;;;13.67;12.47;;;;;;;26.24;49.33;94650.38;6139543;28;103651;-52
2022/06/22 14:28:59;;;;;;;15.37;13.97;;;;;;;26.25;49.79;94651.13;6129313;28;104006;-52
2022/06/22 14:32:14;;;;;;;14.27;12.77;;;;;;;26.25;49.50;94649.25;6138986;28;103985;-52
2022/06/22 14:35:32;;;;;;;14.60;13.30;;;;;;;26.25;49.52;94637.72;6140934;28;103880;-52
2022/06/22 14:38:45;;;;;;;14.10;12.90;;;;;;;26.22;49.71;94635.72;6163797;28;104818;-56
2022/06/22 14:41:57;;;;;;;14.03;12.73;;;;;;;26.27;48.90;94646.22;6155068;28;104792;-54
2022/06/22 14:45:13;;;;;;;14.27;12.73;;;;;;;26.34;47.33;94643.72;6164193;28;104040;-57
2022/06/22 14:48:27;;;;;;;13.80;12.50;;;;;;;26.35;47.63;94647.16;6164256;28;103945;-56
2022/06/22 14:51:39;;;;;;;13.40;10.47;;;;;;;26.33;47.27;94644.84;6153592;28;103663;-56
2022/06/22 14:54:54;;;;;;;12.23;11.00;;;;;;;26.33;46.76;94644.06;6163529;28;104259;-56
2022/06/22 14:58:06;;;;;;;13.07;11.53;;;;;;;26.31;46.75;94641.72;6163651;28;103751;-56
2022/06/22 15:01:18;;;;;;;14.07;12.70;;;;;;;26.31;46.61;94651.66;6163021;28;103910;-56
2022/06/22 15:04:27;;;;;;;13.00;11.60;;;;;;;26.31;45.72;94665.84;6152645;28;104978;-56
2022/06/22 15:07:37;;;;;;;13.40;11.53;;;;;;;26.28;46.30;94648.53;6163246;28;103671;-56